Time;durP1;ratioP1;P1;durP2;ratioP2;P2;SDS_P1;SDS_P2;PMS_P1;PMS_P2;Temp;Humidity;BMP_temperature;BMP_pressure;BME280_temperature;BME280_humidity;BME280_pressure;Samples;Min_cycle;Max_cycle;Signal;HPM_P1;HPM_P2
2021/06/05 00:00:46;;;;;;;2.50;2.10;;;18.80;33.50;;;;;;5070430;28;20738;-73
2021/06/05 00:03:14;;;;;;;7.93;2.40;;;18.70;33.70;;;;;;5070862;28;20560;-73
2021/06/05 00:05:43;;;;;;;2.07;1.70;;;18.70;34.90;;;;;;5069241;28;20420;-73
2021/06/05 00:08:11;;;;;;;2.17;1.97;;;18.60;35.00;;;;;;5070551;28;20416;-72
2021/06/05 00:10:43;;;;;;;2.60;2.23;;;18.50;35.50;;;;;;5070302;28;20503;-72
2021/06/05 00:13:19;;;;;;;3.63;2.50;;;18.50;35.60;;;;;;5071509;28;20432;-72
2021/06/05 00:15:47;;;;;;;2.93;1.70;;;18.40;36.70;;;;;;5074423;28;20469;-73
2021/06/05 00:18:13;;;;;;;3.30;2.43;;;18.30;36.90;;;;;;5074367;28;20407;-73
2021/06/05 00:20:40;;;;;;;3.07;2.03;;;18.20;37.40;;;;;;5074054;28;20569;-73
2021/06/05 00:23:10;;;;;;;2.43;1.83;;;18.20;37.40;;;;;;5074411;28;20428;-73
2021/06/05 00:25:36;;;;;;;2.37;1.80;;;18.10;37.50;;;;;;5074803;28;20961;-73
2021/06/05 00:28:03;;;;;;;5.07;2.83;;;18.10;38.10;;;;;;5072780;28;20435;-73
2021/06/05 00:30:29;;;;;;;2.30;2.10;;;18.00;38.10;;;;;;5072460;28;20528;-73
2021/06/05 00:32:55;;;;;;;1.90;1.50;;;17.90;37.40;;;;;;5074027;28;20867;-73
2021/06/05 00:35:23;;;;;;;3.23;1.70;;;17.90;37.30;;;;;;5073936;28;20908;-73
2021/06/05 00:37:49;;;;;;;1.93;1.40;;;17.80;36.50;;;;;;5074585;28;20972;-73
2021/06/05 00:40:17;;;;;;;2.53;1.63;;;17.80;36.10;;;;;;5073931;28;20473;-73
2021/06/05 00:42:44;;;;;;;4.93;2.40;;;17.70;35.90;;;;;;5073876;28;20463;-72
2021/06/05 00:45:14;;;;;;;2.40;1.63;;;17.70;35.40;;;;;;5073847;28;20427;-73
2021/06/05 00:47:39;;;;;;;1.97;1.73;;;17.60;35.20;;;;;;5073939;28;20972;-73
2021/06/05 00:50:08;;;;;;;2.47;1.60;;;17.60;35.10;;;;;;5073430;28;20590;-73
2021/06/05 00:52:34;;;;;;;5.30;1.80;;;17.50;35.10;;;;;;5072212;28;20216;-72
2021/06/05 00:55:00;;;;;;;3.40;1.60;;;17.50;34.90;;;;;;5073622;28;20420;-73
2021/06/05 00:57:26;;;;;;;2.60;1.73;;;17.40;35.40;;;;;;5073567;28;20419;-73
2021/06/05 00:59:51;;;;;;;1.87;1.47;;;17.40;35.40;;;;;;5071888;28;20852;-73
2021/06/05 01:02:17;;;;;;;2.63;1.60;;;17.40;36.00;;;;;;5073475;28;20694;-73
2021/06/05 01:04:43;;;;;;;1.60;1.13;;;17.30;36.20;;;;;;5073904;28;20185;-72
2021/06/05 01:07:18;;;;;;;1.60;1.37;;;17.30;36.50;;;;;;5073394;28;20178;-73
2021/06/05 01:09:59;;;;;;;2.67;1.73;;;17.30;37.40;;;;;;5073038;28;20483;-73
2021/06/05 01:12:48;;;;;;;1.57;1.13;;;17.30;37.40;;;;;;5073171;28;20431;-74
2021/06/05 01:15:30;;;;;;;5.30;2.10;;;17.20;37.90;;;;;;5073159;28;20412;-73
2021/06/05 01:18:05;;;;;;;2.23;1.37;;;17.20;38.50;;;;;;5072233;28;20416;-72
2021/06/05 01:20:48;;;;;;;2.30;1.80;;;17.10;39.00;;;;;;5072991;28;20423;-73
2021/06/05 01:23:35;;;;;;;2.40;1.60;;;17.10;39.10;;;;;;5071423;28;20494;-73
2021/06/05 01:26:03;;;;;;;2.10;1.67;;;17.10;39.40;;;;;;5073285;28;20929;-74
2021/06/05 01:28:40;;;;;;;4.40;1.17;;;17.00;40.10;;;;;;5073022;28;20439;-73
2021/06/05 01:31:14;;;;;;;1.77;1.30;;;17.00;41.20;;;;;;5071445;28;20428;-73
2021/06/05 01:33:41;;;;;;;2.30;1.90;;;17.10;40.80;;;;;;5071839;28;20450;-74
2021/06/05 01:36:08;;;;;;;1.90;1.50;;;17.00;40.80;;;;;;5072841;28;20466;-72
2021/06/05 01:38:36;;;;;;;2.27;1.63;;;17.00;41.70;;;;;;5072866;28;20435;-73
2021/06/05 01:41:02;;;;;;;2.47;1.70;;;17.00;42.10;;;;;;5072496;28;20416;-72
2021/06/05 01:43:29;;;;;;;3.93;1.90;;;16.90;42.30;;;;;;5072609;28;20446;-73
2021/06/05 01:45:58;;;;;;;3.10;1.80;;;16.90;42.30;;;;;;5072750;28;20734;-73
2021/06/05 01:48:23;;;;;;;2.80;1.97;;;16.90;42.30;;;;;;5072586;28;20408;-73
2021/06/05 01:50:50;;;;;;;3.80;1.37;;;16.80;43.00;;;;;;5072219;28;20807;-73
2021/06/05 01:53:25;;;;;;;2.00;1.40;;;16.70;42.50;;;;;;5071053;28;20210;-74
2021/06/05 01:56:13;;;;;;;2.27;1.63;;;16.70;43.40;;;;;;5072369;28;20970;-73
2021/06/05 01:58:41;;;;;;;2.70;1.77;;;16.60;43.40;;;;;;5072552;28;20933;-72
2021/06/05 02:01:08;;;;;;;2.33;1.70;;;16.60;43.60;;;;;;5072052;28;20545;-74
2021/06/05 02:03:33;;;;;;;4.57;1.90;;;16.70;44.30;;;;;;5072593;28;20434;-74
2021/06/05 02:05:59;;;;;;;1.93;1.40;;;16.70;44.50;;;;;;5072313;28;20416;-73
2021/06/05 02:08:28;;;;;;;2.37;1.33;;;16.70;45.50;;;;;;5072357;28;20429;-73
2021/06/05 02:11:02;;;;;;;2.67;1.60;;;16.70;45.10;;;;;;5070579;28;20217;-73
2021/06/05 02:13:37;;;;;;;1.80;1.50;;;16.80;44.40;;;;;;5071924;28;20424;-73
2021/06/05 02:16:15;;;;;;;4.07;1.23;;;16.70;44.60;;;;;;5072105;28;20419;-73
2021/06/05 02:18:46;;;;;;;2.20;1.60;;;16.70;44.60;;;;;;5071990;28;20416;-73
2021/06/05 02:21:16;;;;;;;3.53;1.70;;;16.70;44.50;;;;;;5071896;28;20503;-73
2021/06/05 02:23:57;;;;;;;2.10;1.60;;;16.70;44.60;;;;;;5071885;28;20729;-73
2021/06/05 02:26:24;;;;;;;1.90;1.17;;;16.70;45.10;;;;;;5071733;28;20416;-73
2021/06/05 02:28:54;;;;;;;2.27;1.83;;;16.70;45.00;;;;;;5070308;28;20426;-73
2021/06/05 02:31:21;;;;;;;2.77;1.83;;;16.70;44.30;;;;;;5070406;28;20451;-72
2021/06/05 02:33:47;;;;;;;4.80;1.60;;;16.70;44.70;;;;;;5070212;28;20808;-73
2021/06/05 02:36:13;;;;;;;6.27;1.97;;;16.70;43.80;;;;;;5070844;28;20503;-73
2021/06/05 02:38:46;;;;;;;2.40;1.50;;;16.70;43.50;;;;;;5071426;28;20968;-73
2021/06/05 02:41:14;;;;;;;3.00;1.83;;;16.60;44.00;;;;;;5071444;28;20886;-73
2021/06/05 02:43:42;;;;;;;2.23;1.90;;;16.60;44.00;;;;;;5071315;28;20440;-72
2021/06/05 02:46:19;;;;;;;3.17;2.30;;;16.60;44.60;;;;;;5071729;28;20427;-72
2021/06/05 02:48:51;;;;;;;4.47;2.97;;;16.60;45.00;;;;;;5071142;28;20416;-71
2021/06/05 02:51:20;;;;;;;4.13;2.37;;;16.50;45.30;;;;;;5071347;28;20427;-73
2021/06/05 02:53:46;;;;;;;6.50;2.20;;;16.50;46.10;;;;;;5092974;22;20498;-71
2021/06/05 02:56:12;;;;;;;2.70;1.90;;;16.50;46.10;;;;;;5071335;28;20488;-71
2021/06/05 02:58:39;;;;;;;4.73;1.83;;;16.50;45.60;;;;;;5071217;28;20540;-70
2021/06/05 03:01:06;;;;;;;2.20;1.67;;;16.50;45.50;;;;;;5070992;28;20409;-71
2021/06/05 03:03:32;;;;;;;13.03;2.00;;;16.60;46.10;;;;;;5069753;28;20863;-71
2021/06/05 03:05:58;;;;;;;2.33;1.67;;;16.60;46.20;;;;;;5070964;28;20553;-71
2021/06/05 03:08:26;;;;;;;2.13;1.63;;;16.60;45.80;;;;;;5071511;28;20473;-71
2021/06/05 03:10:52;;;;;;;2.17;1.67;;;16.60;45.40;;;;;;5070703;28;20266;-71
2021/06/05 03:13:20;;;;;;;2.80;1.53;;;16.50;45.20;;;;;;5070963;28;20435;-71
2021/06/05 03:15:47;;;;;;;1.87;1.57;;;16.50;46.00;;;;;;5071106;28;20420;-71
2021/06/05 03:18:15;;;;;;;2.07;1.67;;;16.50;46.20;;;;;;5071072;28;20415;-73
2021/06/05 03:20:44;;;;;;;2.20;1.57;;;16.50;47.00;;;;;;5070853;28;20499;-70
2021/06/05 03:23:10;;;;;;;3.13;1.87;;;16.40;47.00;;;;;;5069834;28;20526;-72
2021/06/05 03:25:36;;;;;;;3.23;1.73;;;16.40;47.20;;;;;;5070891;28;20408;-70
2021/06/05 03:28:04;;;;;;;2.20;1.40;;;16.40;47.00;;;;;;5070922;28;20498;-70
2021/06/05 03:30:30;;;;;;;6.60;1.70;;;16.40;47.00;;;;;;5070640;28;20463;-71
2021/06/05 03:32:56;;;;;;;7.27;1.93;;;16.40;47.30;;;;;;5070821;28;20428;-71
2021/06/05 03:35:22;;;;;;;2.43;1.80;;;16.50;47.10;;;;;;5071356;28;20469;-71
2021/06/05 03:37:48;;;;;;;2.03;1.63;;;16.50;46.60;;;;;;5069665;28;20416;-70
2021/06/05 03:40:18;;;;;;;3.40;1.87;;;16.50;46.30;;;;;;5070654;28;20463;-70
2021/06/05 03:42:43;;;;;;;2.37;1.37;;;16.50;46.10;;;;;;5070743;28;20455;-70
2021/06/05 03:45:09;;;;;;;2.77;1.60;;;16.50;46.90;;;;;;5070753;28;20412;-71
2021/06/05 03:47:36;;;;;;;2.20;1.80;;;16.60;47.20;;;;;;5072423;28;20182;-70
2021/06/05 03:50:04;;;;;;;1.80;1.37;;;16.60;46.10;;;;;;5074636;28;20502;-71
2021/06/05 03:52:29;;;;;;;2.40;1.50;;;16.70;45.00;;;;;;5074472;28;20518;-72
2021/06/05 03:54:56;;;;;;;2.40;1.30;;;16.70;44.60;;;;;;5074616;28;20450;-71
2021/06/05 03:57:23;;;;;;;2.20;1.60;;;16.70;44.70;;;;;;5073457;28;20170;-71
2021/06/05 03:59:52;;;;;;;1.47;1.00;;;16.80;45.20;;;;;;5074266;28;20416;-72
2021/06/05 04:02:18;;;;;;;3.17;1.50;;;16.80;44.50;;;;;;5074335;28;20757;-73
2021/06/05 04:04:44;;;;;;;3.10;2.20;;;16.90;44.10;;;;;;5074540;28;20410;-71
2021/06/05 04:07:10;;;;;;;2.33;1.97;;;16.90;43.50;;;;;;5074490;28;20703;-71
2021/06/05 04:09:36;;;;;;;3.37;1.47;;;16.90;43.80;;;;;;5074093;28;20569;-72
2021/06/05 04:12:02;;;;;;;3.10;1.83;;;17.00;43.70;;;;;;5074336;28;20466;-72
2021/06/05 04:14:28;;;;;;;2.57;1.83;;;17.00;44.00;;;;;;5074201;28;20443;-71
2021/06/05 04:16:54;;;;;;;6.47;2.00;;;17.00;43.40;;;;;;5074146;28;21114;-71
2021/06/05 04:19:19;;;;;;;3.77;1.57;;;17.00;43.70;;;;;;5072437;28;20174;-71
2021/06/05 04:21:45;;;;;;;3.00;1.47;;;17.10;43.80;;;;;;5074248;28;20224;-71
2021/06/05 04:24:10;;;;;;;1.93;1.60;;;17.10;43.70;;;;;;5072610;28;20198;-71
2021/06/05 04:26:36;;;;;;;3.20;1.57;;;17.00;43.90;;;;;;5074066;28;20664;-71
2021/06/05 04:29:03;;;;;;;3.87;1.63;;;17.00;44.00;;;;;;5073673;28;20291;-71
2021/06/05 04:31:29;;;;;;;2.00;1.80;;;17.10;43.70;;;;;;5073940;28;20271;-72
2021/06/05 04:33:54;;;;;;;2.70;2.00;;;17.10;43.90;;;;;;5073926;28;20478;-72
2021/06/05 04:36:20;;;;;;;2.97;1.30;;;17.10;43.20;;;;;;5073973;28;20206;-71
2021/06/05 04:38:47;;;;;;;2.27;1.43;;;17.20;43.00;;;;;;5073637;28;20678;-69
2021/06/05 04:41:14;;;;;;;1.90;1.50;;;17.30;42.70;;;;;;5074345;28;20170;-70
2021/06/05 04:43:40;;;;;;;2.63;1.67;;;17.30;42.10;;;;;;5072399;28;20471;-69
2021/06/05 04:46:05;;;;;;;3.20;1.83;;;17.30;42.70;;;;;;5073670;28;20448;-70
2021/06/05 04:48:31;;;;;;;2.80;1.67;;;17.40;42.40;;;;;;5073754;28;20174;-71
2021/06/05 04:50:57;;;;;;;2.43;1.53;;;17.50;42.50;;;;;;5073854;28;20212;-71
2021/06/05 04:53:23;;;;;;;1.73;1.60;;;17.50;42.90;;;;;;5072353;28;20208;-70
2021/06/05 04:55:50;;;;;;;1.83;1.57;;;17.60;42.90;;;;;;5073656;28;20177;-71
2021/06/05 04:58:16;;;;;;;2.37;1.50;;;17.60;42.90;;;;;;5073213;28;20412;-70
2021/06/05 05:00:45;;;;;;;2.03;1.33;;;17.60;42.20;;;;;;5073084;28;20450;-70
2021/06/05 05:03:13;;;;;;;1.83;1.50;;;17.70;41.70;;;;;;5072148;28;20450;-70
2021/06/05 05:05:39;;;;;;;5.30;1.50;;;17.80;41.80;;;;;;5073686;28;20412;-71
2021/06/05 05:08:06;;;;;;;1.90;1.50;;;17.90;41.40;;;;;;5073678;28;20411;-71
2021/06/05 05:10:36;;;;;;;1.90;1.60;;;18.00;40.40;;;;;;5073218;28;20197;-70
2021/06/05 05:13:02;;;;;;;3.87;2.10;;;18.10;39.70;;;;;;5073232;28;20451;-70
2021/06/05 05:15:29;;;;;;;2.10;1.90;;;18.20;39.80;;;;;;5073432;28;20408;-70
2021/06/05 05:17:55;;;;;;;3.40;1.50;;;18.30;39.70;;;;;;5074939;28;20404;-70
2021/06/05 05:20:30;;;;;;;2.00;1.80;;;18.30;39.30;;;;;;5077038;28;20412;-70
2021/06/05 05:22:56;;;;;;;2.07;1.63;;;18.40;39.10;;;;;;5074917;28;20200;-70
2021/06/05 05:25:22;;;;;;;5.90;1.90;;;18.40;38.90;;;;;;5074054;28;20416;-70
2021/06/05 05:27:48;;;;;;;1.53;1.23;;;18.40;38.40;;;;;;5072873;28;20442;-70
2021/06/05 05:30:27;;;;;;;3.87;1.97;;;18.40;38.40;;;;;;5074167;28;20209;-70
2021/06/05 05:32:53;;;;;;;2.13;1.63;;;18.50;38.00;;;;;;5073723;28;20200;-70
2021/06/05 05:35:19;;;;;;;1.90;1.70;;;18.60;37.80;;;;;;5074364;28;20901;-70
2021/06/05 05:37:45;;;;;;;2.13;1.67;;;18.60;37.50;;;;;;5073186;28;20202;-70
2021/06/05 05:40:11;;;;;;;2.97;1.80;;;18.60;36.80;;;;;;5073369;28;20428;-70
2021/06/05 05:42:37;;;;;;;2.67;2.33;;;18.70;37.00;;;;;;5073136;28;20577;-70
2021/06/05 05:45:05;;;;;;;4.90;1.40;;;18.60;36.60;;;;;;5073645;28;20443;-70
2021/06/05 05:47:30;;;;;;;2.10;1.63;;;18.60;36.40;;;;;;5074669;28;20759;-70
2021/06/05 05:49:56;;;;;;;1.83;1.20;;;18.70;36.30;;;;;;5072268;28;20459;-70
2021/06/05 05:52:21;;;;;;;1.60;1.50;;;18.70;35.70;;;;;;5072482;28;20320;-70
2021/06/05 05:54:47;;;;;;;2.50;1.40;;;18.80;35.60;;;;;;5072892;28;20170;-70
2021/06/05 05:57:13;;;;;;;2.20;1.63;;;18.90;34.20;;;;;;5072593;28;20177;-70
2021/06/05 05:59:38;;;;;;;1.80;1.67;;;19.00;35.00;;;;;;5073520;28;20177;-70
2021/06/05 06:02:04;;;;;;;3.13;1.73;;;19.00;34.40;;;;;;5070913;28;20185;-70
2021/06/05 06:04:30;;;;;;;2.73;1.70;;;19.10;34.60;;;;;;5071162;28;20182;-70
2021/06/05 06:06:55;;;;;;;2.00;1.50;;;19.30;35.20;;;;;;5072373;28;20469;-71
2021/06/05 06:09:21;;;;;;;2.07;1.50;;;19.40;34.50;;;;;;5075184;28;20218;-70
2021/06/05 06:11:47;;;;;;;2.50;2.10;;;19.50;34.10;;;;;;5072107;28;20202;-71
2021/06/05 06:14:16;;;;;;;6.37;2.17;;;19.70;33.60;;;;;;5074216;28;20182;-70
2021/06/05 06:16:42;;;;;;;2.37;2.17;;;19.80;33.00;;;;;;5072054;28;20174;-70
2021/06/05 06:19:12;;;;;;;2.70;2.50;;;20.00;33.00;;;;;;5072242;28;20431;-70
2021/06/05 06:21:38;;;;;;;2.47;1.97;;;20.10;32.40;;;;;;5072771;28;20189;-70
2021/06/05 06:24:04;;;;;;;3.83;1.40;;;20.30;31.30;;;;;;5072728;28;20432;-71
2021/06/05 06:26:30;;;;;;;2.00;1.33;;;20.50;31.40;;;;;;5073441;28;20182;-71
2021/06/05 06:29:06;;;;;;;2.40;1.93;;;20.70;30.20;;;;;;5071658;28;20434;-70
2021/06/05 06:31:32;;;;;;;2.27;2.07;;;20.80;30.80;;;;;;5073050;28;20461;-70
2021/06/05 06:33:58;;;;;;;1.83;1.60;;;20.80;30.00;;;;;;5072830;28;20941;-71
2021/06/05 06:36:24;;;;;;;3.97;2.00;;;20.90;30.00;;;;;;5073045;28;20178;-69
2021/06/05 06:38:50;;;;;;;2.10;1.90;;;20.90;30.00;;;;;;5073373;28;20234;-69
2021/06/05 06:41:20;;;;;;;2.80;1.90;;;21.00;28.80;;;;;;5073051;28;20491;-69
2021/06/05 06:43:46;;;;;;;3.33;2.07;;;21.10;28.30;;;;;;5070535;28;20439;-69
2021/06/05 06:46:18;;;;;;;1.90;1.80;;;21.10;28.20;;;;;;5072030;28;20404;-70
2021/06/05 06:48:47;;;;;;;2.73;1.90;;;20.90;28.50;;;;;;5071977;28;20170;-71
2021/06/05 06:51:12;;;;;;;2.33;1.93;;;20.90;28.80;;;;;;5072875;28;20416;-70
2021/06/05 06:53:38;;;;;;;3.87;2.20;;;20.90;29.00;;;;;;5072644;28;20958;-70
2021/06/05 06:56:05;;;;;;;3.23;2.40;;;21.00;28.90;;;;;;5072184;28;20166;-70
2021/06/05 06:58:32;;;;;;;2.73;2.20;;;21.00;28.50;;;;;;5073202;28;20408;-70
2021/06/05 07:00:58;;;;;;;2.40;2.20;;;21.10;28.60;;;;;;5072077;28;20920;-70
2021/06/05 07:03:23;;;;;;;2.57;2.30;;;21.20;28.70;;;;;;5071349;28;20440;-69
2021/06/05 07:05:49;;;;;;;2.50;2.30;;;21.10;28.90;;;;;;5071901;28;20250;-70
2021/06/05 07:08:20;;;;;;;3.93;2.27;;;21.20;29.30;;;;;;5071562;28;20685;-69
2021/06/05 07:10:48;;;;;;;2.60;1.90;;;21.00;29.90;;;;;;5071891;28;20611;-69
2021/06/05 07:13:15;;;;;;;4.83;2.70;;;20.80;29.60;;;;;;5072504;28;20805;-70
2021/06/05 07:15:40;;;;;;;2.17;1.90;;;20.70;29.90;;;;;;5072571;28;20440;-70
2021/06/05 07:18:11;;;;;;;2.27;2.07;;;20.80;29.70;;;;;;5071158;28;20473;-69
2021/06/05 07:20:38;;;;;;;2.33;2.13;;;20.90;28.90;;;;;;5071982;28;20166;-72
2021/06/05 07:23:04;;;;;;;2.50;2.30;;;21.00;28.30;;;;;;5071506;28;20435;-70
2021/06/05 07:25:30;;;;;;;2.33;1.90;;;21.10;28.50;;;;;;5072001;28;20584;-69
2021/06/05 07:27:56;;;;;;;1.93;1.73;;;21.00;29.50;;;;;;5071194;28;20916;-69
2021/06/05 07:30:22;;;;;;;2.20;2.00;;;21.00;28.80;;;;;;5071596;28;20194;-72
2021/06/05 07:32:49;;;;;;;1.83;1.70;;;20.80;29.30;;;;;;5074036;28;20425;-72
2021/06/05 07:35:15;;;;;;;1.87;1.67;;;20.80;30.30;;;;;;5070947;28;20408;-69
2021/06/05 07:37:40;;;;;;;2.20;2.00;;;20.80;30.00;;;;;;5071776;28;20408;-71
2021/06/05 07:40:08;;;;;;;2.07;1.60;;;20.70;31.00;;;;;;5071287;28;20439;-70
2021/06/05 07:42:37;;;;;;;2.60;1.87;;;20.70;31.30;;;;;;5071858;28;20194;-70
2021/06/05 07:45:05;;;;;;;2.67;1.90;;;20.80;31.40;;;;;;5071637;28;20408;-70
2021/06/05 07:47:31;;;;;;;2.30;2.10;;;20.80;30.00;;;;;;5072370;28;20782;-70
2021/06/05 07:49:57;;;;;;;2.50;2.03;;;20.90;28.70;;;;;;5071465;28;20465;-70
2021/06/05 07:52:25;;;;;;;4.10;2.30;;;20.90;28.90;;;;;;5071481;28;20196;-70
2021/06/05 07:54:53;;;;;;;2.40;2.20;;;21.10;28.40;;;;;;5071535;28;20181;-70
2021/06/05 07:57:20;;;;;;;3.73;2.43;;;21.20;28.50;;;;;;5071411;28;20933;-70
2021/06/05 07:59:46;;;;;;;2.30;2.10;;;21.30;29.50;;;;;;5071217;28;20503;-70
2021/06/05 08:02:11;;;;;;;3.03;2.73;;;21.30;29.30;;;;;;5072011;28;20499;-70
2021/06/05 08:04:37;;;;;;;2.57;2.23;;;21.30;28.30;;;;;;5071589;28;20178;-70
2021/06/05 08:07:03;;;;;;;1.97;1.80;;;21.30;28.20;;;;;;5071513;28;20174;-70
2021/06/05 08:09:29;;;;;;;1.83;1.70;;;21.40;29.70;;;;;;5069743;28;20213;-69
2021/06/05 08:11:55;;;;;;;2.40;2.20;;;21.30;28.20;;;;;;5071510;28;20553;-70
2021/06/05 08:14:20;;;;;;;2.87;2.63;;;21.30;29.00;;;;;;5071504;28;20744;-70
2021/06/05 08:16:46;;;;;;;3.03;2.33;;;21.40;29.50;;;;;;5072384;28;20549;-70
2021/06/05 08:19:13;;;;;;;2.47;2.27;;;21.60;29.20;;;;;;5071146;28;20197;-69
2021/06/05 08:21:40;;;;;;;2.40;2.20;;;21.70;27.60;;;;;;5071471;28;20182;-70
2021/06/05 08:24:06;;;;;;;2.40;2.20;;;21.70;27.10;;;;;;5071576;28;20451;-70
2021/06/05 08:26:32;;;;;;;5.60;2.50;;;21.80;27.30;;;;;;5071247;28;20427;-70
2021/06/05 08:28:57;;;;;;;2.93;2.73;;;21.90;27.10;;;;;;5070629;28;20888;-69
2021/06/05 08:31:23;;;;;;;3.33;3.03;;;21.90;26.50;;;;;;5071156;28;20310;-71
2021/06/05 08:33:49;;;;;;;2.30;2.10;;;21.90;27.20;;;;;;5071589;28;20654;-70
2021/06/05 08:36:17;;;;;;;3.10;2.70;;;21.90;27.30;;;;;;5074320;28;20300;-70
2021/06/05 08:38:43;;;;;;;2.50;2.30;;;22.00;26.90;;;;;;5075053;28;20174;-70
2021/06/05 08:41:28;;;;;;;3.60;3.10;;;22.20;26.80;;;;;;5075275;28;20506;-70
2021/06/05 08:44:03;;;;;;;3.13;2.90;;;22.30;26.80;;;;;;5075229;28;20906;-70
2021/06/05 08:46:35;;;;;;;2.73;2.53;;;22.40;25.90;;;;;;5074830;28;20773;-70
2021/06/05 08:49:22;;;;;;;3.00;2.80;;;22.30;26.00;;;;;;5074781;28;20985;-70
2021/06/05 08:52:06;;;;;;;4.57;2.83;;;22.40;26.90;;;;;;5074596;28;20419;-71
2021/06/05 08:54:54;;;;;;;2.80;2.60;;;22.50;26.90;;;;;;5075784;28;20983;-70
2021/06/05 08:57:41;;;;;;;6.60;3.03;;;22.40;26.10;;;;;;5074759;28;20408;-71
2021/06/05 09:00:16;;;;;;;3.33;3.00;;;22.30;27.50;;;;;;5074126;28;20432;-71
2021/06/05 09:02:45;;;;;;;6.13;2.53;;;22.30;27.60;;;;;;5074603;28;20432;-71
2021/06/05 09:05:15;;;;;;;2.87;2.67;;;22.30;27.50;;;;;;5074376;28;20416;-70
2021/06/05 09:07:42;;;;;;;3.93;3.53;;;22.30;28.10;;;;;;5074347;28;20453;-71
2021/06/05 09:10:12;;;;;;;3.17;2.80;;;22.20;27.60;;;;;;5073926;28;20953;-70
2021/06/05 09:12:37;;;;;;;2.90;2.70;;;22.10;27.60;;;;;;5074051;28;20428;-71
2021/06/05 09:15:05;;;;;;;2.40;2.20;;;22.00;27.50;;;;;;5074536;28;20443;-70
2021/06/05 09:17:36;;;;;;;3.17;2.87;;;22.10;28.60;;;;;;5075904;28;20182;-71
2021/06/05 09:20:11;;;;;;;2.83;2.20;;;22.30;28.70;;;;;;5073576;28;20416;-72
2021/06/05 09:22:44;;;;;;;3.07;2.87;;;22.40;30.00;;;;;;5073500;28;20435;-71
2021/06/05 09:25:34;;;;;;;4.10;2.70;;;22.60;27.30;;;;;;5074697;28;20416;-71
2021/06/05 09:28:16;;;;;;;8.17;3.37;;;22.70;27.70;;;;;;5073109;28;20913;-69
2021/06/05 09:30:43;;;;;;;4.23;3.43;;;23.00;27.00;;;;;;5074712;28;20474;-71
2021/06/05 09:33:25;;;;;;;3.80;3.50;;;23.30;26.40;;;;;;5074401;28;20497;-71
2021/06/05 09:35:51;;;;;;;3.33;3.13;;;23.40;25.40;;;;;;5073172;28;20404;-71
2021/06/05 09:38:32;;;;;;;4.83;3.50;;;23.50;25.40;;;;;;5073881;28;20427;-71
2021/06/05 09:41:21;;;;;;;4.80;4.40;;;23.50;25.70;;;;;;5073180;28;20565;-71
2021/06/05 09:43:48;;;;;;;3.93;3.63;;;23.70;26.40;;;;;;5072635;28;20435;-72
2021/06/05 09:46:19;;;;;;;6.20;4.00;;;23.90;27.00;;;;;;5072878;28;20477;-71
2021/06/05 09:48:48;;;;;;;3.90;3.70;;;24.00;25.20;;;;;;5074833;28;20409;-72
2021/06/05 09:51:36;;;;;;;3.77;3.57;;;24.10;26.00;;;;;;5075349;28;20452;-70
2021/06/05 09:54:14;;;;;;;3.63;3.43;;;24.20;24.40;;;;;;5075095;28;20487;-70
2021/06/05 09:56:48;;;;;;;3.50;3.20;;;24.20;23.80;;;;;;5073085;28;20766;-70
2021/06/05 09:59:34;;;;;;;4.03;3.77;;;24.10;24.80;;;;;;5074596;28;20420;-71
2021/06/05 10:02:05;;;;;;;3.60;3.40;;;24.00;25.10;;;;;;5073657;28;20423;-70
2021/06/05 10:04:34;;;;;;;4.33;3.93;;;24.00;24.20;;;;;;5073478;28;20412;-72
2021/06/05 10:07:01;;;;;;;4.20;4.00;;;24.20;23.80;;;;;;5072861;28;20480;-71
2021/06/05 10:09:27;;;;;;;4.07;3.87;;;24.30;24.40;;;;;;5072791;28;20460;-72
2021/06/05 10:12:19;;;;;;;4.03;3.83;;;24.40;22.50;;;;;;5074388;28;20423;-71
2021/06/05 10:15:23;;;;;;;4.73;4.43;;;24.50;22.60;;;;;;5073686;28;20170;-72
2021/06/05 10:18:04;;;;;;;4.80;4.50;;;24.90;23.00;;;;;;5072612;28;20839;-71
2021/06/05 10:20:38;;;;;;;5.10;4.80;;;25.00;22.60;;;;;;5074110;28;20407;-71
2021/06/05 10:23:04;;;;;;;4.23;4.03;;;25.00;22.20;;;;;;5072534;28;20491;-71
2021/06/05 10:25:37;;;;;;;4.37;4.07;;;24.70;23.10;;;;;;5072066;28;20408;-72
2021/06/05 10:28:14;;;;;;;4.27;3.97;;;24.40;24.00;;;;;;5074578;28;20411;-71
2021/06/05 10:30:51;;;;;;;3.73;3.53;;;24.10;25.00;;;;;;5071794;28;20980;-72
2021/06/05 10:34:03;;;;;;;3.10;2.90;;;23.90;26.00;;;;;;5072762;28;21017;-72
2021/06/05 10:36:43;;;;;;;3.90;3.67;;;23.60;26.10;;;;;;5029946;28;20520;-72
2021/06/05 10:39:11;;;;;;;2.67;2.47;;;23.30;25.90;;;;;;5067458;28;20510;-72
2021/06/05 10:41:53;;;;;;;3.17;2.97;;;23.30;27.90;;;;;;5073958;28;20451;-71
2021/06/05 10:44:19;;;;;;;3.40;3.20;;;23.60;26.80;;;;;;5071403;28;20531;-72
2021/06/05 10:46:51;;;;;;;3.60;3.40;;;23.80;27.60;;;;;;5071572;28;20503;-72
2021/06/05 10:49:47;;;;;;;4.10;3.80;;;24.10;25.70;;;;;;5071628;28;20241;-72
2021/06/05 10:52:25;;;;;;;4.80;4.50;;;24.10;24.60;;;;;;5072340;28;20787;-71
2021/06/05 10:54:54;;;;;;;4.90;4.23;;;24.10;23.50;;;;;;5071390;28;20495;-72
2021/06/05 10:57:20;;;;;;;4.17;3.93;;;24.20;22.90;;;;;;5070795;28;20893;-72
2021/06/05 10:59:55;;;;;;;4.60;4.30;;;24.40;24.10;;;;;;5071465;28;20871;-72
2021/06/05 11:02:51;;;;;;;4.30;4.10;;;24.80;24.00;;;;;;5072492;28;20423;-72
2021/06/05 11:05:17;;;;;;;4.60;4.40;;;24.90;23.40;;;;;;5073134;28;20428;-72
2021/06/05 11:07:47;;;;;;;5.50;4.80;;;25.10;23.40;;;;;;5074822;28;20826;-72
2021/06/05 11:10:44;;;;;;;5.80;5.40;;;25.10;22.90;;;;;;5071987;28;20205;-72
2021/06/05 11:13:10;;;;;;;5.33;5.03;;;25.10;22.40;;;;;;5071837;28;20941;-72
2021/06/05 11:15:58;;;;;;;5.43;5.13;;;25.40;21.50;;;;;;5071946;28;20419;-71
2021/06/05 11:18:35;;;;;;;5.80;5.40;;;25.80;20.40;;;;;;5071935;28;20536;-72
2021/06/05 11:21:20;;;;;;;5.87;5.57;;;25.90;21.50;;;;;;5072226;28;20472;-71
2021/06/05 11:23:58;;;;;;;6.40;6.10;;;26.00;20.50;;;;;;5072142;28;20431;-71
2021/06/05 11:26:36;;;;;;;5.60;5.30;;;25.90;20.20;;;;;;5072520;28;20968;-72
2021/06/05 11:29:26;;;;;;;6.10;5.70;;;25.70;20.10;;;;;;5072021;28;20825;-71
2021/06/05 11:32:16;;;;;;;5.93;5.60;;;25.50;21.30;;;;;;5072220;28;20416;-72
2021/06/05 11:34:42;;;;;;;5.47;5.17;;;25.20;20.10;;;;;;5072431;28;20411;-72
2021/06/05 11:37:13;;;;;;;5.00;4.70;;;24.80;22.00;;;;;;5071868;28;20404;-72
2021/06/05 11:39:43;;;;;;;5.23;4.93;;;24.60;23.60;;;;;;5071758;28;20197;-71
2021/06/05 11:42:21;;;;;;;4.53;4.33;;;24.40;23.40;;;;;;5071906;28;20952;-71
2021/06/05 11:44:55;;;;;;;4.80;4.50;;;24.30;24.40;;;;;;5071770;28;20419;-71
2021/06/05 11:47:21;;;;;;;4.50;4.20;;;24.50;25.40;;;;;;5071971;28;20427;-71
2021/06/05 11:49:51;;;;;;;4.10;3.90;;;24.70;24.20;;;;;;5071792;28;20451;-72
2021/06/05 11:52:22;;;;;;;4.33;4.03;;;24.80;25.00;;;;;;5071509;28;20416;-72
2021/06/05 11:54:48;;;;;;;4.77;4.47;;;24.90;24.40;;;;;;5072101;28;20454;-71
2021/06/05 11:57:23;;;;;;;4.87;4.57;;;24.90;24.80;;;;;;5071906;28;20416;-72
2021/06/05 11:59:49;;;;;;;4.87;4.57;;;24.90;25.20;;;;;;5070789;28;20416;-71
2021/06/05 12:02:30;;;;;;;5.07;4.67;;;25.00;25.00;;;;;;5073889;28;20960;-71
2021/06/05 12:05:15;;;;;;;4.60;4.40;;;25.10;24.40;;;;;;5071320;28;20408;-73
2021/06/05 12:07:42;;;;;;;5.40;5.10;;;25.00;24.40;;;;;;5070853;28;20416;-72
2021/06/05 12:10:11;;;;;;;4.97;4.67;;;24.90;23.60;;;;;;5075722;28;20830;-72
2021/06/05 12:12:45;;;;;;;4.47;4.27;;;24.80;24.70;;;;;;5075644;28;20739;-72
2021/06/05 12:15:20;;;;;;;4.27;3.87;;;24.70;26.30;;;;;;5074916;28;20423;-71
2021/06/05 12:18:02;;;;;;;4.50;4.20;;;24.50;26.80;;;;;;5076181;28;20839;-71
2021/06/05 12:20:35;;;;;;;4.57;4.37;;;24.50;27.40;;;;;;5075708;28;20423;-71
2021/06/05 12:23:24;;;;;;;4.00;3.70;;;24.50;26.90;;;;;;5074348;28;20446;-72
2021/06/05 12:25:51;;;;;;;4.00;3.73;;;24.50;27.00;;;;;;5075002;28;20503;-72
2021/06/05 12:28:28;;;;;;;4.23;3.93;;;24.60;27.10;;;;;;5074876;28;20412;-72
2021/06/05 12:30:57;;;;;;;3.57;3.37;;;24.50;28.10;;;;;;5075022;28;20451;-72
2021/06/05 12:33:29;;;;;;;4.40;4.10;;;24.60;28.40;;;;;;5074945;28;20573;-72
2021/06/05 12:35:54;;;;;;;4.10;3.90;;;24.70;27.00;;;;;;5074847;28;21054;-71
2021/06/05 12:38:38;;;;;;;5.50;4.70;;;24.80;26.40;;;;;;5075226;28;20499;-71
2021/06/05 12:41:07;;;;;;;4.50;4.30;;;24.70;26.90;;;;;;5074065;28;20181;-71
2021/06/05 12:43:43;;;;;;;4.53;4.23;;;24.60;27.00;;;;;;5074157;28;20811;-72
2021/06/05 12:46:13;;;;;;;3.90;3.60;;;24.50;27.40;;;;;;5076300;28;20782;-71
2021/06/05 12:48:39;;;;;;;3.23;3.03;;;24.30;28.20;;;;;;5073709;28;20427;-72
2021/06/05 12:51:08;;;;;;;7.10;3.53;;;23.90;27.90;;;;;;5074391;28;20969;-71
2021/06/05 12:53:33;;;;;;;4.13;2.90;;;23.60;27.90;;;;;;5073526;28;20904;-71
2021/06/05 12:56:36;;;;;;;2.83;2.60;;;23.40;29.20;;;;;;5074702;28;20499;-71
2021/06/05 12:59:06;;;;;;;2.93;2.73;;;23.30;29.90;;;;;;5071654;28;20703;-72
2021/06/05 13:01:35;;;;;;;2.70;2.50;;;23.20;29.50;;;;;;5074423;28;20979;-71
2021/06/05 13:04:02;;;;;;;9.33;2.33;;;23.00;29.50;;;;;;5074637;28;20998;-72